Time;durP1;ratioP1;P1;durP2;ratioP2;P2;SDS_P1;SDS_P2;PMS_P1;PMS_P2;Temp;Humidity;BMP_temperature;BMP_pressure;BME280_temperature;BME280_humidity;BME280_pressure;Samples;Min_cycle;Max_cycle;Signal;HPM_P1;HPM_P2
2022/01/31 00:01:23;;;;;;;15.63;5.77;;;5.00;99.90;;;;;;5022720;28;20029;-68
2022/01/31 00:03:49;;;;;;;17.00;6.33;;;5.00;99.90;;;;;;5011304;28;20017;-69
2022/01/31 00:06:14;;;;;;;14.20;6.27;;;5.00;99.90;;;;;;5015722;28;20144;-69
2022/01/31 00:08:40;;;;;;;19.10;8.00;;;5.10;99.90;;;;;;5012378;28;20483;-69
2022/01/31 00:11:06;;;;;;;26.77;7.67;;;5.30;99.90;;;;;;5013866;28;20487;-69
2022/01/31 00:13:36;;;;;;;19.93;8.33;;;;;;;;;;5012095;28;20022;-69
2022/01/31 00:16:03;;;;;;;21.03;8.20;;;5.10;99.90;;;;;;5039007;28;20048;-69
2022/01/31 00:18:29;;;;;;;16.77;7.33;;;;;;;;;;5014084;28;20093;-69
2022/01/31 00:20:55;;;;;;;12.70;6.33;;;;;;;;;;5023670;28;20045;-68
2022/01/31 00:23:21;;;;;;;22.40;7.67;;;5.20;99.90;;;;;;5033816;28;20108;-69
2022/01/31 00:25:46;;;;;;;18.47;7.00;;;5.10;99.90;;;;;;5031106;28;20061;-69
2022/01/31 00:28:13;;;;;;;15.97;6.03;;;5.10;99.90;;;;;;5031541;28;20049;-68
2022/01/31 00:30:39;;;;;;;21.00;6.53;;;5.10;99.90;;;;;;5036560;28;20382;-69
2022/01/31 00:33:05;;;;;;;14.63;6.53;;;5.00;99.90;;;;;;5044682;28;20037;-69
2022/01/31 00:35:31;;;;;;;12.50;6.23;;;5.10;99.90;;;;;;5031166;28;20072;-68
2022/01/31 00:37:56;;;;;;;16.90;8.10;;;5.00;99.90;;;;;;5031127;28;20430;-69
2022/01/31 00:40:22;;;;;;;22.20;6.50;;;5.30;99.90;;;;;;5031259;28;20072;-69
2022/01/31 00:42:48;;;;;;;17.97;7.77;;;5.10;99.90;;;;;;5030761;28;20029;-69
2022/01/31 00:45:23;;;;;;;18.43;6.07;;;;;;;;;;5032315;28;20041;-69
2022/01/31 00:47:59;;;;;;;16.20;6.60;;;5.00;99.90;;;;;;5044882;28;20021;-69
2022/01/31 00:50:25;;;;;;;15.33;7.30;;;5.00;99.90;;;;;;5051074;28;20091;-69
2022/01/31 00:52:51;;;;;;;24.23;7.93;;;;;;;;;;5031753;28;20675;-69
2022/01/31 00:55:17;;;;;;;16.87;7.00;;;5.00;99.90;;;;;;5031477;28;20048;-69
2022/01/31 00:57:43;;;;;;;16.50;7.63;;;5.00;99.90;;;;;;5030347;28;20132;-68
2022/01/31 01:00:11;;;;;;;21.63;7.60;;;4.80;99.90;;;;;;5030743;28;20509;-69
2022/01/31 01:02:36;;;;;;;21.60;8.03;;;4.80;99.90;;;;;;5026947;28;20033;-69
2022/01/31 01:05:03;;;;;;;19.40;8.10;;;4.90;99.90;;;;;;5051053;28;20029;-69
2022/01/31 01:07:29;;;;;;;28.00;7.93;;;;;;;;;;5050397;28;20033;-68
2022/01/31 01:09:54;;;;;;;22.03;8.70;;;4.80;99.90;;;;;;5050234;28;20033;-69
2022/01/31 01:12:20;;;;;;;19.50;7.30;;;4.70;99.90;;;;;;5050389;28;20028;-68
2022/01/31 01:14:47;;;;;;;20.10;7.47;;;4.80;99.90;;;;;;5032500;28;20036;-68
2022/01/31 01:17:13;;;;;;;16.83;6.43;;;;;;;;;;5030273;28;20510;-69
2022/01/31 01:19:38;;;;;;;17.43;7.80;;;4.80;99.90;;;;;;5029927;28;20121;-68
2022/01/31 01:22:04;;;;;;;19.83;7.37;;;4.60;99.90;;;;;;5041840;28;20039;-68
2022/01/31 01:24:30;;;;;;;20.60;7.83;;;5.20;99.90;;;;;;5040280;28;20037;-69
2022/01/31 01:26:57;;;;;;;25.10;8.57;;;;;;;;;;5029956;28;20132;-69
2022/01/31 01:29:23;;;;;;;17.30;7.93;;;4.50;99.90;;;;;;5043210;28;20029;-69
2022/01/31 01:31:49;;;;;;;22.77;8.17;;;4.60;99.90;;;;;;5049295;28;20102;-69
2022/01/31 01:34:16;;;;;;;24.47;8.37;;;4.60;99.90;;;;;;5046798;28;20039;-69
2022/01/31 01:36:43;;;;;;;16.87;8.00;;;4.60;99.90;;;;;;5029772;28;20021;-69
2022/01/31 01:39:09;;;;;;;19.27;8.63;;;4.50;99.90;;;;;;5030196;28;20037;-68
2022/01/31 01:41:35;;;;;;;20.87;9.73;;;4.50;99.90;;;;;;5029971;28;20037;-69
2022/01/31 01:44:01;;;;;;;19.03;8.90;;;4.50;99.90;;;;;;5029137;28;20475;-69
2022/01/31 01:46:26;;;;;;;29.40;10.53;;;;;;;;;;5029582;28;20080;-69
2022/01/31 01:48:52;;;;;;;21.87;9.53;;;4.60;99.90;;;;;;5027605;28;20068;-69
2022/01/31 01:51:18;;;;;;;27.00;11.63;;;;;;;;;;5043055;28;20040;-69
2022/01/31 01:53:44;;;;;;;18.57;10.17;;;4.40;99.90;;;;;;5029426;28;20437;-69
2022/01/31 01:56:09;;;;;;;20.13;9.13;;;4.40;99.90;;;;;;5012261;28;20032;-69
2022/01/31 01:58:40;;;;;;;14.03;9.30;;;4.50;99.90;;;;;;5038765;28;20123;-68
2022/01/31 02:01:07;;;;;;;16.27;8.70;;;4.40;99.90;;;;;;5049045;28;20032;-69
2022/01/31 02:03:35;;;;;;;20.13;11.10;;;4.40;99.90;;;;;;5049618;28;20029;-69
2022/01/31 02:06:01;;;;;;;17.20;8.70;;;4.30;99.90;;;;;;5042787;28;20104;-69
2022/01/31 02:08:38;;;;;;;16.57;9.73;;;4.60;99.90;;;;;;5029748;28;20060;-69
2022/01/31 02:11:04;;;;;;;21.13;10.00;;;4.60;99.90;;;;;;5029607;28;20032;-69
2022/01/31 02:13:30;;;;;;;15.57;9.97;;;4.60;99.90;;;;;;5032572;28;20025;-69
2022/01/31 02:15:56;;;;;;;18.83;9.13;;;4.40;99.90;;;;;;5048164;28;20039;-69
2022/01/31 02:18:25;;;;;;;15.67;9.60;;;4.60;99.90;;;;;;5049426;28;20025;-69
2022/01/31 02:20:51;;;;;;;27.93;11.50;;;4.60;99.90;;;;;;5047108;28;20098;-68
2022/01/31 02:23:17;;;;;;;16.83;9.83;;;4.50;99.90;;;;;;5041009;28;20107;-69
2022/01/31 02:26:01;;;;;;;16.27;9.57;;;4.60;99.90;;;;;;5048327;28;20141;-69
2022/01/31 02:28:29;;;;;;;20.42;9.75;;;4.60;99.90;;;;;;5046636;28;20040;-69
2022/01/31 02:30:55;;;;;;;23.17;11.77;;;4.60;99.90;;;;;;5028783;28;20026;-69
2022/01/31 02:33:22;;;;;;;20.50;10.20;;;4.40;99.90;;;;;;5029191;28;20025;-69
2022/01/31 02:35:56;;;;;;;21.40;10.80;;;4.50;99.90;;;;;;5028945;28;20374;-69
2022/01/31 02:38:22;;;;;;;17.33;10.88;;;4.80;99.90;;;;;;5031129;28;20174;-69
2022/01/31 02:40:50;;;;;;;14.83;9.93;;;;;;;;;;5027827;28;20544;-68
2022/01/31 02:43:30;;;;;;;23.13;10.23;;;4.80;99.90;;;;;;5028157;28;20087;-69
2022/01/31 02:45:56;;;;;;;22.23;9.63;;;4.90;99.90;;;;;;5047914;28;20052;-69
2022/01/31 02:48:24;;;;;;;19.23;10.13;;;4.60;99.90;;;;;;5048221;28;20017;-69
2022/01/31 02:50:51;;;;;;;14.77;9.90;;;5.00;99.90;;;;;;5046474;28;20021;-69
2022/01/31 02:53:25;;;;;;;18.33;9.17;;;4.90;99.90;;;;;;5039849;28;20096;-69
2022/01/31 02:55:53;;;;;;;18.73;8.90;;;5.00;99.90;;;;;;5039987;28;20021;-69
2022/01/31 02:58:20;;;;;;;21.77;10.23;;;5.20;99.90;;;;;;5051989;28;20167;-69
2022/01/31 03:00:46;;;;;;;19.57;9.37;;;5.30;99.90;;;;;;5046795;28;20481;-68
2022/01/31 03:03:12;;;;;;;13.97;9.20;;;;;;;;;;5032989;28;20564;-69
2022/01/31 03:05:37;;;;;;;19.80;8.97;;;5.10;99.90;;;;;;5032557;28;20128;-68
2022/01/31 03:08:05;;;;;;;15.87;9.27;;;5.30;99.90;;;;;;5033082;28;20029;-69
2022/01/31 03:10:31;;;;;;;15.43;9.40;;;;;;;;;;5045687;28;20032;-68
2022/01/31 03:12:56;;;;;;;14.87;10.43;;;5.30;99.90;;;;;;5051085;28;20041;-68
2022/01/31 03:15:22;;;;;;;23.73;9.90;;;5.30;99.90;;;;;;5033109;28;20037;-68
2022/01/31 03:17:49;;;;;;;21.13;9.50;;;5.50;99.90;;;;;;5033375;28;20037;-68
2022/01/31 03:20:17;;;;;;;16.63;7.80;;;5.40;99.90;;;;;;5032934;28;20125;-68
2022/01/31 03:22:43;;;;;;;14.70;7.93;;;;;;;;;;5047735;28;20033;-68
2022/01/31 03:25:09;;;;;;;14.30;7.17;;;;;;;;;;5015221;28;20030;-68
2022/01/31 03:27:35;;;;;;;20.23;8.13;;;;;;;;;;5034520;28;20552;-68
2022/01/31 03:30:01;;;;;;;14.30;6.90;;;;;;;;;;5034485;28;20028;-68
2022/01/31 03:32:27;;;;;;;12.20;6.07;;;5.80;99.90;;;;;;5040469;28;20091;-68
2022/01/31 03:34:53;;;;;;;15.60;6.33;;;;;;;;;;5032077;28;20033;-68
2022/01/31 03:37:18;;;;;;;20.53;6.70;;;5.60;99.90;;;;;;5039157;28;20033;-68
2022/01/31 03:39:43;;;;;;;21.80;7.63;;;5.70;99.90;;;;;;5040874;28;20040;-68
2022/01/31 03:42:09;;;;;;;21.30;6.93;;;5.90;99.90;;;;;;5046529;28;20099;-68
2022/01/31 03:44:35;;;;;;;18.50;4.77;;;;;;;;;;5034051;28;20116;-68
2022/01/31 03:47:01;;;;;;;19.97;4.73;;;5.80;99.90;;;;;;5052413;28;20029;-69
2022/01/31 03:49:26;;;;;;;18.83;4.50;;;5.60;99.90;;;;;;5052214;28;20377;-69
2022/01/31 03:51:52;;;;;;;16.87;3.43;;;;;;;;;;5048540;28;20111;-68
2022/01/31 03:54:18;;;;;;;23.80;4.40;;;6.10;99.90;;;;;;5047249;28;20122;-68
2022/01/31 03:56:43;;;;;;;13.10;3.47;;;6.00;99.90;;;;;;5051118;28;20449;-68
2022/01/31 03:59:09;;;;;;;14.90;3.00;;;6.20;99.90;;;;;;5048503;28;20116;-68
2022/01/31 04:01:35;;;;;;;20.90;3.27;;;;;;;;;;5051411;28;20040;-68
2022/01/31 04:04:01;;;;;;;16.80;3.50;;;;;;;;;;5051984;28;20025;-68
2022/01/31 04:06:27;;;;;;;18.67;3.60;;;6.00;99.90;;;;;;5018408;28;20434;-68
2022/01/31 04:08:52;;;;;;;15.70;2.87;;;6.10;99.90;;;;;;5030756;28;20049;-68
2022/01/31 04:11:18;;;;;;;11.20;2.97;;;6.40;99.90;;;;;;5045119;28;20039;-68
2022/01/31 04:13:44;;;;;;;9.57;2.70;;;;;;;;;;5051316;28;20389;-68
2022/01/31 04:16:10;;;;;;;14.97;2.67;;;6.30;99.90;;;;;;5033204;28;20029;-68
2022/01/31 04:18:36;;;;;;;17.77;3.10;;;;;;;;;;5051472;28;20025;-68
2022/01/31 04:21:02;;;;;;;16.60;3.20;;;6.40;99.90;;;;;;5044919;28;20072;-68
2022/01/31 04:23:29;;;;;;;10.00;2.17;;;6.30;99.90;;;;;;5042530;28;20060;-68
2022/01/31 04:26:03;;;;;;;20.73;3.73;;;6.50;99.90;;;;;;5030833;28;20824;-68
2022/01/31 04:28:38;;;;;;;;;;;6.40;99.90;;;;;;5032342;28;20022;-68
2022/01/31 04:33:36;;;;;;;15.30;2.33;;;;;;;;;;5031766;28;20029;-68
2022/01/31 04:36:02;;;;;;;22.37;3.10;;;;;;;;;;5031505;28;20029;-68
2022/01/31 04:38:28;;;;;;;14.53;2.87;;;6.50;99.90;;;;;;5031443;28;20037;-68
2022/01/31 04:40:53;;;;;;;16.33;2.60;;;6.40;99.90;;;;;;5030553;28;20038;-68
2022/01/31 04:43:19;;;;;;;9.43;2.57;;;6.60;99.90;;;;;;5033154;28;20032;-68
2022/01/31 04:45:48;;;;;;;15.37;2.63;;;6.40;99.90;;;;;;5050392;28;20033;-68
2022/01/31 04:48:15;;;;;;;13.60;3.10;;;7.00;99.90;;;;;;5033258;28;20021;-68
2022/01/31 04:50:41;;;;;;;17.77;3.37;;;6.40;99.90;;;;;;5044314;28;20121;-69
2022/01/31 04:53:07;;;;;;;13.83;3.47;;;;;;;;;;5034531;28;20467;-68
2022/01/31 04:55:34;;;;;;;17.17;3.63;;;6.60;99.90;;;;;;5031538;28;20080;-68
2022/01/31 04:58:00;;;;;;;14.93;3.37;;;;;;;;;;5030568;28;20107;-68
2022/01/31 05:00:25;;;;;;;14.90;2.87;;;6.90;99.90;;;;;;5031010;28;20053;-68
2022/01/31 05:02:51;;;;;;;16.70;3.10;;;6.50;99.90;;;;;;5030225;28;20876;-68
2022/01/31 05:05:17;;;;;;;12.87;1.87;;;6.30;99.90;;;;;;5013149;28;20065;-68
2022/01/31 05:07:42;;;;;;;13.37;2.50;;;6.40;99.90;;;;;;5030991;28;20463;-68
2022/01/31 05:10:08;;;;;;;13.77;3.93;;;6.30;99.90;;;;;;5050216;28;20439;-68
2022/01/31 05:12:34;;;;;;;17.30;3.67;;;6.40;99.90;;;;;;5050420;28;20435;-68
2022/01/31 05:15:00;;;;;;;13.93;2.73;;;6.50;99.90;;;;;;5035206;28;20029;-68
2022/01/31 05:17:25;;;;;;;13.50;3.70;;;6.60;99.90;;;;;;5036317;28;20527;-68
2022/01/31 05:19:51;;;;;;;13.87;3.60;;;6.30;99.90;;;;;;5049734;28;20048;-68
2022/01/31 05:22:16;;;;;;;10.73;2.60;;;6.50;99.90;;;;;;5048857;28;20469;-68
2022/01/31 05:24:42;;;;;;;10.70;1.73;;;6.40;99.90;;;;;;5048572;28;20040;-68
2022/01/31 05:27:08;;;;;;;18.80;2.30;;;;;;;;;;5050398;28;20382;-68
2022/01/31 05:29:33;;;;;;;19.40;3.60;;;6.30;99.90;;;;;;5041362;28;20114;-68
2022/01/31 05:31:59;;;;;;;19.37;2.33;;;;;;;;;;5030778;28;20037;-68
2022/01/31 05:34:25;;;;;;;19.20;2.50;;;6.20;99.90;;;;;;5050171;28;20068;-68
2022/01/31 05:36:54;;;;;;;20.40;2.93;;;6.00;99.90;;;;;;5049339;28;20528;-68
2022/01/31 05:39:23;;;;;;;16.73;2.60;;;6.20;99.90;;;;;;5049653;28;20110;-68
2022/01/31 05:41:49;;;;;;;18.47;3.13;;;;;;;;;;5034446;28;20018;-68
2022/01/31 05:44:14;;;;;;;17.50;2.87;;;5.90;99.90;;;;;;5020766;28;20029;-68
2022/01/31 05:46:40;;;;;;;14.70;1.90;;;;;;;;;;5041238;28;20022;-68
2022/01/31 05:49:06;;;;;;;8.77;1.63;;;5.70;99.90;;;;;;5017929;28;20072;-68
2022/01/31 05:51:32;;;;;;;7.57;1.10;;;;;;;;;;5009889;28;20022;-68
2022/01/31 05:53:58;;;;;;;5.33;1.50;;;5.40;99.90;;;;;;5023196;28;20033;-68
2022/01/31 05:56:23;;;;;;;10.27;1.30;;;5.30;99.90;;;;;;5013629;28;20117;-68
2022/01/31 05:58:50;;;;;;;11.03;1.30;;;5.20;99.90;;;;;;5012772;28;20050;-68
2022/01/31 06:01:16;;;;;;;13.97;1.37;;;5.20;99.90;;;;;;5020782;28;20037;-68
2022/01/31 06:03:42;;;;;;;9.87;1.53;;;;;;;;;;5013795;28;20374;-68
2022/01/31 06:06:08;;;;;;;14.93;1.80;;;;;;;;;;5009938;28;20072;-68
2022/01/31 06:08:33;;;;;;;9.53;2.83;;;5.10;99.90;;;;;;5016685;28;20028;-68
2022/01/31 06:10:59;;;;;;;14.90;2.10;;;;;;;;;;5029044;28;20044;-68
2022/01/31 06:13:29;;;;;;;16.03;1.97;;;5.00;99.90;;;;;;5031775;28;20029;-68
2022/01/31 06:15:54;;;;;;;13.50;2.53;;;5.00;99.90;;;;;;5038219;28;20071;-68
2022/01/31 06:18:20;;;;;;;16.73;2.03;;;5.10;99.90;;;;;;5036257;28;20071;-68
2022/01/31 06:20:46;;;;;;;9.47;2.30;;;;;;;;;;5048081;28;20090;-68
2022/01/31 06:23:12;;;;;;;11.13;1.97;;;4.80;99.90;;;;;;5048994;28;20052;-68
2022/01/31 06:25:39;;;;;;;13.77;2.37;;;4.90;99.90;;;;;;5030931;28;20148;-68
2022/01/31 06:28:05;;;;;;;14.63;1.70;;;5.00;99.90;;;;;;5035868;28;20025;-67
2022/01/31 06:30:32;;;;;;;13.57;2.37;;;5.00;99.90;;;;;;5030905;28;20036;-68
2022/01/31 06:32:57;;;;;;;11.10;2.37;;;5.10;99.90;;;;;;5044776;28;20029;-68
2022/01/31 06:35:24;;;;;;;23.97;4.17;;;5.40;99.90;;;;;;5048879;28;20028;-68
2022/01/31 06:37:50;;;;;;;19.00;3.80;;;4.90;99.90;;;;;;5048411;28;20493;-68
2022/01/31 06:40:16;;;;;;;20.30;2.73;;;;;;;;;;5049259;28;20044;-68
2022/01/31 06:42:42;;;;;;;19.87;3.80;;;;;;;;;;5039791;28;20057;-67
2022/01/31 06:45:08;;;;;;;17.83;3.60;;;5.10;99.90;;;;;;5041436;28;20064;-68
2022/01/31 06:47:34;;;;;;;17.63;3.57;;;5.00;99.90;;;;;;5022011;28;20034;-68
2022/01/31 06:50:00;;;;;;;27.90;4.03;;;;;;;;;;5016689;28;20033;-68
2022/01/31 06:52:31;;;;;;;18.40;3.23;;;5.30;99.90;;;;;;5029158;28;20036;-68
2022/01/31 06:55:01;;;;;;;16.53;3.27;;;5.10;99.90;;;;;;5028852;28;20022;-68
2022/01/31 06:57:33;;;;;;;16.77;2.97;;;5.20;99.90;;;;;;5029262;28;20395;-68
2022/01/31 06:59:59;;;;;;;14.97;3.87;;;5.30;99.90;;;;;;5028653;28;20362;-68
2022/01/31 07:02:25;;;;;;;20.67;2.63;;;5.20;99.90;;;;;;5029141;28;20025;-68
2022/01/31 07:04:50;;;;;;;22.30;5.13;;;;;;;;;;5027991;28;20356;-68
2022/01/31 07:07:16;;;;;;;12.63;2.70;;;;;;;;;;5018278;28;20498;-68
2022/01/31 07:09:42;;;;;;;13.03;2.87;;;;;;;;;;5008786;28;20068;-68
2022/01/31 07:12:10;;;;;;;13.30;1.70;;;5.30;99.90;;;;;;5009212;28;20029;-68
2022/01/31 07:14:36;;;;;;;17.67;3.23;;;;;;;;;;5008733;28;20025;-68
2022/01/31 07:17:04;;;;;;;14.73;2.37;;;5.30;99.90;;;;;;5024742;28;20436;-68
2022/01/31 07:19:34;;;;;;;11.00;2.47;;;5.20;99.90;;;;;;5030279;28;20029;-68
2022/01/31 07:22:00;;;;;;;13.53;2.43;;;5.20;99.90;;;;;;5036595;28;20116;-68
2022/01/31 07:24:42;;;;;;;18.00;3.53;;;5.20;99.90;;;;;;5023775;28;20033;-68
2022/01/31 07:27:08;;;;;;;15.67;2.70;;;4.90;99.90;;;;;;5029840;28;20542;-70
2022/01/31 07:29:33;;;;;;;12.17;2.20;;;5.10;99.90;;;;;;5028522;28;20121;-71
2022/01/31 07:32:00;;;;;;;8.60;2.00;;;5.30;99.90;;;;;;5028083;28;20060;-70
2022/01/31 07:34:26;;;;;;;12.40;2.50;;;;;;;;;;5027834;28;20029;-70
2022/01/31 07:36:53;;;;;;;20.33;3.03;;;5.20;99.90;;;;;;5024889;28;20048;-70
2022/01/31 07:39:19;;;;;;;12.63;2.47;;;5.30;99.90;;;;;;5008563;28;20045;-71
2022/01/31 07:41:46;;;;;;;18.93;2.77;;;5.30;99.90;;;;;;5009925;28;20030;-70
2022/01/31 07:44:13;;;;;;;14.07;2.00;;;5.30;99.90;;;;;;4995046;28;20041;-71
2022/01/31 07:46:39;;;;;;;12.00;2.57;;;;;;;;;;5012017;28;20033;-71
2022/01/31 07:49:05;;;;;;;16.30;3.13;;;;;;;;;;5012222;28;20028;-71
2022/01/31 07:51:31;;;;;;;19.40;3.23;;;5.20;99.90;;;;;;5012795;28;20050;-71
2022/01/31 07:53:57;;;;;;;15.03;3.07;;;5.30;99.90;;;;;;5012028;28;20494;-71
2022/01/31 07:56:22;;;;;;;25.63;3.30;;;5.30;99.90;;;;;;5031905;28;20025;-70
2022/01/31 07:58:48;;;;;;;19.00;3.00;;;5.20;99.90;;;;;;5030740;28;20133;-71
2022/01/31 08:01:14;;;;;;;19.23;4.23;;;;;;;;;;5040705;28;20044;-71
2022/01/31 08:03:40;;;;;;;18.17;3.30;;;5.20;99.90;;;;;;5047317;28;20025;-71
2022/01/31 08:06:06;;;;;;;17.93;3.13;;;;;;;;;;5022940;28;20033;-71
2022/01/31 08:08:34;;;;;;;22.37;3.87;;;;;;;;;;5003134;28;20021;-70
2022/01/31 08:11:02;;;;;;;19.83;3.77;;;5.20;99.90;;;;;;5020040;28;20109;-70
2022/01/31 08:13:28;;;;;;;21.53;4.33;;;;;;;;;;5018155;28;20049;-72
2022/01/31 08:18:33;;;;;;;22.40;3.37;;;5.20;99.90;;;;;;5011588;28;20049;-71
2022/01/31 08:21:00;;;;;;;25.33;3.50;;;5.30;99.90;;;;;;5037362;28;20029;-71
2022/01/31 08:23:25;;;;;;;24.93;4.63;;;5.30;99.90;;;;;;5031993;28;20029;-71
2022/01/31 08:25:51;;;;;;;21.10;5.10;;;5.30;99.90;;;;;;5030646;28;20585;-70
2022/01/31 08:28:20;;;;;;;17.93;3.03;;;5.30;99.90;;;;;;5031080;28;20036;-71
2022/01/31 08:30:56;;;;;;;20.13;3.70;;;;;;;;;;5030579;28;20029;-71
2022/01/31 08:33:43;;;;;;;32.07;5.03;;;;;;;;;;5038175;28;20166;-71
2022/01/31 08:36:09;;;;;;;22.90;3.93;;;5.20;99.90;;;;;;5051278;28;20492;-71
2022/01/31 08:38:39;;;;;;;23.33;4.20;;;5.30;99.90;;;;;;5050879;28;20047;-71
2022/01/31 08:41:07;;;;;;;25.83;4.63;;;5.30;99.90;;;;;;5038502;28;20344;-71
2022/01/31 08:43:36;;;;;;;27.13;3.83;;;5.30;99.90;;;;;;5030740;28;20032;-71
2022/01/31 08:46:03;;;;;;;16.17;3.63;;;5.00;99.90;;;;;;5030612;28;20479;-70
2022/01/31 08:48:30;;;;;;;28.70;3.90;;;5.10;99.90;;;;;;5031111;28;20148;-71
2022/01/31 08:50:56;;;;;;;18.20;3.87;;;;;;;;;;5037377;28;20503;-71
2022/01/31 08:53:22;;;;;;;24.83;3.13;;;;;;;;;;5018955;28;20030;-71
2022/01/31 08:55:58;;;;;;;22.47;4.57;;;5.40;99.90;;;;;;5020656;28;20109;-71
2022/01/31 08:58:24;;;;;;;28.10;3.73;;;5.40;99.90;;;;;;5021268;28;20207;-71
2022/01/31 09:00:58;;;;;;;18.20;3.00;;;5.10;99.90;;;;;;5019064;28;20061;-71
2022/01/31 09:06:10;;;;;;;26.07;3.53;;;5.50;99.90;;;;;;5020917;28;20041;-71
2022/01/31 09:08:36;;;;;;;21.08;3.60;;;5.40;99.90;;;;;;5023816;28;20022;-71
2022/01/31 09:11:02;;;;;;;15.00;3.97;;;5.30;99.90;;;;;;5031121;28;20060;-70
2022/01/31 09:13:28;;;;;;;29.13;5.00;;;;;;;;;;5030370;28;20074;-70
2022/01/31 09:15:54;;;;;;;20.50;3.93;;;5.50;99.90;;;;;;5029387;28;20030;-71
2022/01/31 09:18:19;;;;;;;30.10;5.17;;;5.40;99.90;;;;;;5028329;28;20113;-71
2022/01/31 09:20:45;;;;;;;16.90;3.23;;;;;;;;;;5025360;28;20045;-71
2022/01/31 09:23:11;;;;;;;23.63;3.53;;;5.50;99.90;;;;;;5030435;28;20080;-71
2022/01/31 09:25:43;;;;;;;20.87;3.80;;;5.40;99.90;;;;;;5029365;28;20139;-71
2022/01/31 09:28:10;;;;;;;16.17;4.20;;;5.30;99.90;;;;;;5030086;28;20021;-71
2022/01/31 09:30:36;;;;;;;34.57;6.17;;;;;;;;;;5039739;28;20032;-71
2022/01/31 09:33:02;;;;;;;21.80;4.17;;;;;;;;;;5050103;28;20086;-72
2022/01/31 09:35:28;;;;;;;32.10;4.33;;;5.70;99.90;;;;;;5043534;28;20041;-71
2022/01/31 09:37:53;;;;;;;27.17;4.57;;;;;;;;;;5029433;28;20025;-71
2022/01/31 09:40:22;;;;;;;31.27;6.27;;;;;;;;;;5028930;28;20048;-70
2022/01/31 09:45:52;;;;;;;18.80;5.10;;;5.40;99.90;;;;;;5027818;28;20466;-70
2022/01/31 09:48:33;;;;;;;18.17;4.83;;;5.50;99.90;;;;;;5025754;28;20033;-70
2022/01/31 09:51:06;;;;;;;23.67;4.67;;;5.50;99.90;;;;;;5029290;28;20029;-71
2022/01/31 09:53:38;;;;;;;30.38;4.65;;;5.50;99.90;;;;;;5029201;28;20492;-71
2022/01/31 09:56:08;;;;;;;29.30;4.00;;;5.50;99.90;;;;;;5029462;28;20502;-70
2022/01/31 09:58:34;;;;;;;16.70;3.90;;;;;;;;;;5028816;28;20064;-69
2022/01/31 10:01:09;;;;;;;24.07;5.20;;;5.50;99.90;;;;;;5029118;28;20033;-71
2022/01/31 10:03:46;;;;;;;20.00;3.83;;;5.40;99.90;;;;;;5029297;28;20022;-70
2022/01/31 10:06:21;;;;;;;27.33;5.30;;;5.40;99.90;;;;;;5040290;28;20298;-70
2022/01/31 10:09:07;;;;;;;25.93;5.23;;;5.70;99.90;;;;;;5029326;28;20036;-70
2022/01/31 10:17:33;;;;;;;30.80;5.53;;;5.50;99.90;;;;;;5019773;28;20037;-70
2022/01/31 10:20:04;;;;;;;22.93;6.70;;;5.60;99.90;;;;;;5028875;28;20402;-70
2022/01/31 10:22:35;;;;;;;34.90;6.00;;;5.50;99.90;;;;;;5026894;28;20033;-70
2022/01/31 10:25:07;;;;;;;26.10;5.77;;;5.70;99.90;;;;;;5029135;28;20017;-70
2022/01/31 10:27:34;;;;;;;26.93;5.13;;;5.40;99.90;;;;;;5028663;28;20027;-70
2022/01/31 10:30:11;;;;;;;32.17;5.13;;;5.40;99.90;;;;;;5029018;28;20021;-69
2022/01/31 10:32:40;;;;;;;29.00;6.13;;;5.40;99.90;;;;;;5028621;28;20044;-70
2022/01/31 10:35:13;;;;;;;34.03;6.00;;;5.40;99.90;;;;;;5028941;28;20023;-69
2022/01/31 10:37:42;;;;;;;30.33;6.83;;;5.50;99.90;;;;;;5028560;28;20386;-70
2022/01/31 10:53:40;;;;;;;25.57;4.90;;;5.80;99.90;;;;;;5028311;28;20029;-70
2022/01/31 10:56:06;;;;;;;44.23;6.90;;;;;;;;;;5046145;28;20032;-69
2022/01/31 10:58:32;;;;;;;29.50;5.63;;;5.80;99.90;;;;;;5040067;28;20418;-70
2022/01/31 11:01:12;;;;;;;33.63;5.10;;;5.70;99.90;;;;;;5026344;28;20046;-70
2022/01/31 11:03:37;;;;;;;27.13;4.63;;;5.70;99.90;;;;;;5012928;28;20036;-70
2022/01/31 11:06:09;;;;;;;25.93;5.73;;;5.90;99.90;;;;;;5028811;28;20025;-70
2022/01/31 11:08:35;;;;;;;25.20;4.77;;;;;;;;;;5031915;28;20087;-70
2022/01/31 11:11:01;;;;;;;27.73;4.70;;;;;;;;;;5036743;28;20018;-70
2022/01/31 11:13:27;;;;;;;28.10;4.57;;;5.80;99.90;;;;;;5028629;28;20096;-70
2022/01/31 11:15:56;;;;;;;27.87;4.07;;;5.70;99.90;;;;;;5028038;28;20131;-70
2022/01/31 11:18:23;;;;;;;25.30;4.63;;;5.60;99.90;;;;;;5032667;28;20056;-70
2022/01/31 11:20:54;;;;;;;23.77;4.30;;;5.70;99.90;;;;;;5031897;28;20056;-70
2022/01/31 11:23:22;;;;;;;28.47;4.07;;;5.60;99.90;;;;;;5032591;28;20057;-70
2022/01/31 11:25:55;;;;;;;28.43;4.30;;;5.70;99.90;;;;;;5031351;28;20032;-71
2022/01/31 11:28:21;;;;;;;21.93;4.97;;;;;;;;;;5042298;28;20057;-70
2022/01/31 11:30:47;;;;;;;24.37;4.77;;;5.80;99.90;;;;;;5031965;28;20428;-70
2022/01/31 11:33:13;;;;;;;22.97;4.43;;;5.50;99.90;;;;;;5032601;28;20026;-70
2022/01/31 11:35:39;;;;;;;24.77;6.73;;;5.60;99.90;;;;;;5031798;28;20347;-70
2022/01/31 11:38:04;;;;;;;20.07;5.07;;;5.30;99.90;;;;;;5032413;28;20029;-70
2022/01/31 11:40:30;;;;;;;37.00;5.37;;;;;;;;;;5029051;28;20140;-70
2022/01/31 11:42:57;;;;;;;24.77;4.43;;;;;;;;;;5028751;28;20045;-70
2022/01/31 11:45:28;;;;;;;20.70;3.90;;;5.70;99.90;;;;;;5018148;28;20461;-70
2022/01/31 11:47:55;;;;;;;35.60;5.43;;;5.70;99.90;;;;;;5011753;28;20116;-70
2022/01/31 11:50:23;;;;;;;25.10;4.30;;;5.70;99.90;;;;;;5012255;28;20033;-71
2022/01/31 11:52:54;;;;;;;28.23;4.23;;;5.60;99.90;;;;;;5014049;28;20026;-70
2022/01/31 11:55:23;;;;;;;20.07;4.13;;;5.80;99.90;;;;;;5028606;28;20203;-70
2022/01/31 11:57:51;;;;;;;28.07;5.40;;;5.70;99.90;;;;;;5030904;28;20703;-70
2022/01/31 12:00:19;;;;;;;26.30;4.73;;;5.70;99.90;;;;;;5034602;28;20469;-70
2022/01/31 12:02:46;;;;;;;25.03;3.47;;;5.60;99.90;;;;;;5027086;28;20481;-70
2022/01/31 12:05:18;;;;;;;27.73;4.87;;;5.40;99.90;;;;;;5014646;28;20129;-70
2022/01/31 12:07:59;;;;;;;34.77;6.13;;;5.70;99.90;;;;;;5011675;28;20022;-70
2022/01/31 12:10:32;;;;;;;33.13;4.60;;;5.80;99.90;;;;;;5011796;28;20050;-70
2022/01/31 12:13:12;;;;;;;25.08;5.40;;;5.70;99.90;;;;;;5011931;28;20022;-69
2022/01/31 12:23:51;;;;;;;32.87;5.97;;;5.80;99.90;;;;;;5022147;28;20025;-70
2022/01/31 12:26:26;;;;;;;29.43;5.23;;;6.00;99.90;;;;;;5051811;28;20381;-69
2022/01/31 12:28:57;;;;;;;33.37;4.87;;;5.60;99.90;;;;;;5050029;28;20044;-69
2022/01/31 12:31:37;;;;;;;33.17;6.07;;;6.00;99.90;;;;;;5051415;28;20028;-69
2022/01/31 12:34:09;;;;;;;35.10;6.53;;;6.10;99.90;;;;;;5051254;28;20147;-70
2022/01/31 12:36:35;;;;;;;26.50;4.33;;;5.90;99.90;;;;;;5051142;28;20378;-69
2022/01/31 12:39:24;;;;;;;32.27;5.73;;;5.80;99.90;;;;;;5044255;28;20028;-69
2022/01/31 12:41:59;;;;;;;23.97;4.90;;;6.00;99.90;;;;;;4995467;28;20415;-69
2022/01/31 12:44:36;;;;;;;29.43;5.53;;;5.90;99.90;;;;;;5025369;28;20014;-69
2022/01/31 12:47:17;;;;;;;26.27;6.30;;;6.20;99.90;;;;;;5018852;28;20022;-69
2022/01/31 12:50:06;;;;;;;26.47;5.57;;;5.90;99.90;;;;;;5018437;28;20487;-69
2022/01/31 12:52:35;;;;;;;19.20;4.40;;;6.00;99.90;;;;;;5019164;28;20030;-69
2022/01/31 12:55:11;;;;;;;25.10;5.50;;;5.80;99.90;;;;;;5027834;28;20061;-69
2022/01/31 12:57:48;;;;;;;25.87;4.13;;;5.90;99.90;;;;;;5030027;28;20522;-69
2022/01/31 13:00:14;;;;;;;28.23;6.13;;;;;;;;;;5029970;28;20042;-69
2022/01/31 13:02:49;;;;;;;28.67;4.80;;;6.00;99.90;;;;;;5030393;28;20356;-69
2022/01/31 13:05:15;;;;;;;37.33;6.13;;;5.90;99.90;;;;;;5030457;28;20076;-68
2022/01/31 13:07:41;;;;;;;19.27;3.60;;;;;;;;;;5029668;28;20060;-68
2022/01/31 13:10:09;;;;;;;36.37;7.37;;;6.10;99.90;;;;;;5030248;28;20039;-69
2022/01/31 13:12:36;;;;;;;31.33;5.40;;;;;;;;;;5048458;28;20036;-69
2022/01/31 13:15:03;;;;;;;38.00;6.47;;;;;;;;;;5035061;28;20430;-69
2022/01/31 13:17:29;;;;;;;24.43;5.17;;;;;;;;;;5030563;28;20025;-69
2022/01/31 13:19:59;;;;;;;30.27;4.77;;;6.00;99.90;;;;;;5029887;28;20552;-69
2022/01/31 13:22:34;;;;;;;30.50;5.33;;;6.00;99.90;;;;;;5032356;28;20620;-69
2022/01/31 13:25:03;;;;;;;31.47;6.27;;;6.00;99.90;;;;;;5010581;28;20026;-69
2022/01/31 13:27:47;;;;;;;38.57;6.23;;;5.80;99.90;;;;;;5013425;28;20466;-70
2022/01/31 13:30:21;;;;;;;37.00;5.65;;;5.80;99.90;;;;;;5030977;28;20014;-69
2022/01/31 13:32:48;;;;;;;;;;;5.90;99.90;;;;;;5042715;28;20036;-69
2022/01/31 13:35:17;;;;;;;33.07;7.47;;;5.80;99.90;;;;;;5030026;28;19909;-69
2022/01/31 13:37:51;;;;;;;29.40;5.47;;;5.70;99.90;;;;;;5029108;28;20040;-69
2022/01/31 13:40:19;;;;;;;;;;;6.70;99.90;;;;;;5030236;28;20389;-69
2022/01/31 13:42:56;;;;;;;37.70;5.77;;;5.90;99.90;;;;;;5029303;28;19909;-69
2022/01/31 13:45:31;;;;;;;32.30;7.53;;;5.90;99.90;;;;;;5030865;28;20023;-69
2022/01/31 13:48:04;;;;;;;30.67;7.27;;;5.70;99.90;;;;;;5034052;28;20215;-70
2022/01/31 13:50:40;;;;;;;32.37;5.90;;;5.70;99.90;;;;;;5021133;28;20033;-69
2022/01/31 13:53:06;;;;;;;38.40;7.27;;;;;;;;;;5028370;28;20482;-69